createdAt,value
2018-12-14T00:01:19.658Z,29.80
2018-12-14T00:03:49.286Z,28.42
2018-12-14T00:06:18.809Z,35.15
2018-12-14T00:08:48.376Z,30.88
2018-12-14T00:11:15.909Z,39.33
2018-12-14T00:13:43.437Z,25.77
2018-12-14T00:16:11.006Z,30.45
2018-12-14T00:18:38.533Z,32.83
2018-12-14T00:21:06.034Z,30.25
2018-12-14T00:23:33.628Z,30.05
2018-12-14T00:26:01.058Z,28.90
2018-12-14T00:28:28.554Z,34.85
2018-12-14T00:30:56.075Z,31.60
2018-12-14T00:33:23.568Z,32.30
2018-12-14T00:35:51.042Z,33.83
2018-12-14T00:38:18.544Z,39.15
2018-12-14T00:40:46.027Z,28.07
2018-12-14T00:43:13.597Z,28.75
2018-12-14T00:45:41.160Z,36.45
2018-12-14T00:48:08.532Z,31.23
2018-12-14T00:50:35.983Z,31.80
2018-12-14T00:53:03.400Z,32.95
2018-12-14T00:55:30.850Z,33.13
2018-12-14T00:57:58.359Z,27.48
2018-12-14T01:00:25.985Z,30.70
2018-12-14T01:02:53.421Z,31.80
2018-12-14T01:05:21.017Z,35.78
2018-12-14T01:07:48.542Z,36.53
2018-12-14T01:10:16.172Z,35.48
2018-12-14T01:12:45.423Z,31.68
2018-12-14T01:15:13.166Z,30.57
2018-12-14T01:17:40.776Z,31.37
2018-12-14T01:20:08.964Z,29.95
2018-12-14T01:22:36.598Z,34.25
2018-12-14T01:25:04.203Z,36.90
2018-12-14T01:27:31.778Z,32.15
2018-12-14T01:29:59.189Z,30.05
2018-12-14T01:32:26.703Z,36.03
2018-12-14T01:34:54.252Z,27.58
2018-12-14T01:37:21.759Z,27.62
2018-12-14T01:39:49.178Z,33.80
2018-12-14T01:42:16.747Z,33.75
2018-12-14T01:44:44.282Z,28.52
2018-12-14T01:47:11.891Z,33.35
2018-12-14T01:49:39.439Z,30.95
2018-12-14T01:52:07.010Z,29.90
2018-12-14T01:54:34.469Z,31.85
2018-12-14T01:57:02.145Z,34.43
2018-12-14T01:59:29.650Z,32.60
2018-12-14T02:01:57.244Z,32.78
2018-12-14T02:04:24.754Z,27.85
2018-12-14T02:06:52.173Z,31.05
2018-12-14T02:09:19.773Z,34.13
2018-12-14T02:11:47.261Z,26.90
2018-12-14T02:14:14.863Z,32.28
2018-12-14T02:16:42.325Z,32.63
2018-12-14T02:19:09.890Z,25.92
2018-12-14T02:21:37.403Z,30.68
2018-12-14T02:24:04.899Z,34.10
2018-12-14T02:26:32.370Z,29.30
2018-12-14T02:29:00.040Z,26.93
2018-12-14T02:31:27.528Z,28.50
2018-12-14T02:33:54.967Z,30.57
2018-12-14T02:36:22.671Z,25.37
2018-12-14T02:38:50.174Z,28.62
2018-12-14T02:41:17.642Z,26.50
2018-12-14T02:43:45.418Z,25.80
2018-12-14T02:46:12.815Z,27.15
2018-12-14T02:48:40.250Z,26.87
2018-12-14T02:51:07.738Z,27.82
2018-12-14T02:53:35.267Z,25.70
2018-12-14T02:56:02.785Z,28.50
2018-12-14T02:58:30.275Z,28.20
2018-12-14T03:00:58.130Z,32.23
2018-12-14T03:03:25.539Z,28.55
2018-12-14T03:05:53.046Z,29.67
2018-12-14T03:08:20.628Z,28.85
2018-12-14T03:10:49.229Z,26.65
2018-12-14T03:13:16.797Z,30.97
2018-12-14T03:15:44.376Z,29.65
2018-12-14T03:18:11.915Z,25.20
2018-12-14T03:20:39.490Z,31.73
2018-12-14T03:23:06.967Z,26.33
2018-12-14T03:25:34.377Z,30.92
2018-12-14T03:28:01.894Z,24.95
2018-12-14T03:30:29.478Z,24.45
2018-12-14T03:32:56.885Z,29.30
2018-12-14T03:35:24.472Z,30.17
2018-12-14T03:37:51.897Z,28.23
2018-12-14T03:40:19.428Z,28.45
2018-12-14T03:42:46.961Z,28.92
2018-12-14T03:45:14.403Z,22.60
2018-12-14T03:47:41.892Z,29.98
2018-12-14T03:50:10.627Z,30.55
2018-12-14T03:52:38.117Z,30.80
2018-12-14T03:55:05.602Z,27.35
2018-12-14T03:57:33.080Z,26.30
2018-12-14T04:00:00.605Z,23.95
2018-12-14T04:02:28.197Z,28.90
2018-12-14T04:04:55.667Z,29.65
2018-12-14T04:07:23.153Z,28.75
2018-12-14T04:09:50.740Z,30.48
2018-12-14T04:12:18.187Z,29.20
2018-12-14T04:14:45.685Z,25.88
2018-12-14T04:17:13.045Z,21.00
2018-12-14T04:19:40.494Z,28.47
2018-12-14T04:22:08.008Z,25.25
2018-12-14T04:24:35.506Z,31.40
2018-12-14T04:27:03.059Z,27.22
2018-12-14T04:29:30.521Z,32.17
2018-12-14T04:31:58.033Z,25.32
2018-12-14T04:34:25.445Z,30.48
2018-12-14T04:36:52.992Z,32.93
2018-12-14T04:39:22.471Z,27.58
2018-12-14T04:41:49.940Z,28.67
2018-12-14T04:44:17.504Z,32.85
2018-12-14T04:46:44.966Z,29.95
2018-12-14T04:49:12.524Z,29.63
2018-12-14T04:51:40.081Z,33.98
2018-12-14T04:54:07.607Z,31.97
2018-12-14T04:56:35.143Z,35.98
2018-12-14T04:59:02.625Z,32.23
2018-12-14T05:01:30.149Z,29.85
2018-12-14T05:03:57.816Z,23.27
2018-12-14T05:06:25.327Z,29.98
2018-12-14T05:08:52.886Z,31.02
2018-12-14T05:11:20.431Z,28.02
2018-12-14T05:13:47.953Z,24.72
2018-12-14T05:16:15.452Z,27.15
2018-12-14T05:18:43.059Z,31.62
2018-12-14T05:21:10.648Z,31.52
2018-12-14T05:23:38.159Z,33.13
2018-12-14T05:26:05.635Z,29.57
2018-12-14T05:28:33.079Z,24.57
2018-12-14T05:31:00.564Z,28.77
2018-12-14T05:33:28.183Z,27.10
2018-12-14T05:35:55.646Z,29.57
2018-12-14T05:38:23.096Z,33.48
2018-12-14T05:40:50.582Z,31.17
2018-12-14T05:43:18.067Z,27.13
2018-12-14T05:45:45.650Z,26.70
2018-12-14T05:48:13.122Z,23.85
2018-12-14T05:53:14.988Z,43.65
2018-12-14T05:55:42.512Z,39.63
2018-12-14T05:58:09.934Z,45.98
2018-12-14T06:00:37.494Z,37.65
2018-12-14T06:03:05.074Z,32.08
2018-12-14T06:05:32.558Z,31.37
2018-12-14T06:08:00.038Z,27.87
2018-12-14T06:10:27.511Z,29.57
2018-12-14T06:12:55.040Z,31.02
2018-12-14T06:17:56.944Z,33.78
2018-12-14T06:20:24.456Z,31.17
2018-12-14T06:22:51.906Z,26.23
2018-12-14T06:25:19.392Z,29.05
2018-12-14T06:27:46.922Z,32.53
2018-12-14T06:30:14.475Z,28.67
2018-12-14T06:32:41.980Z,29.18
2018-12-14T06:35:09.509Z,30.77
2018-12-14T06:37:37.091Z,30.43
2018-12-14T06:40:05.028Z,29.30
2018-12-14T06:42:32.608Z,26.95
2018-12-14T06:45:00.113Z,28.15
2018-12-14T06:47:29.296Z,30.37
2018-12-14T06:49:56.737Z,37.33
2018-12-14T06:52:24.206Z,45.30
2018-12-14T06:54:51.740Z,52.65
2018-12-14T06:57:19.174Z,71.75
2018-12-14T06:59:46.712Z,87.80
2018-12-14T07:02:14.180Z,72.82
2018-12-14T07:04:41.639Z,63.48
2018-12-14T07:07:09.130Z,62.85
2018-12-14T07:09:36.648Z,85.60
2018-12-14T07:12:04.121Z,129.25
2018-12-14T07:14:31.691Z,155.12
2018-12-14T07:17:00.056Z,181.50
2018-12-14T07:19:28.648Z,140.15
2018-12-14T07:21:57.399Z,120.42
2018-12-14T07:24:24.903Z,149.62
2018-12-14T07:26:52.760Z,180.35
2018-12-14T07:29:20.232Z,138.95
2018-12-14T07:31:47.727Z,129.53
2018-12-14T07:34:15.879Z,124.95
2018-12-14T07:36:44.191Z,112.15
2018-12-14T07:39:11.780Z,61.58
2018-12-14T07:41:39.401Z,51.45
2018-12-14T07:44:08.769Z,48.50
2018-12-14T07:46:36.546Z,51.88
2018-12-14T07:49:04.478Z,40.55
2018-12-14T07:51:31.918Z,44.18
2018-12-14T07:53:59.762Z,43.60
2018-12-14T07:56:27.243Z,43.55
2018-12-14T07:58:55.247Z,55.00
2018-12-14T08:01:22.876Z,56.85
2018-12-14T08:03:50.395Z,57.90
2018-12-14T08:06:17.893Z,53.05
2018-12-14T08:08:45.473Z,51.95
2018-12-14T08:11:13.140Z,51.10
2018-12-14T08:13:40.755Z,48.00
2018-12-14T08:16:08.270Z,46.92
2018-12-14T08:18:35.984Z,47.30
2018-12-14T08:21:03.545Z,42.55
2018-12-14T08:23:31.934Z,44.83
2018-12-14T08:25:59.444Z,46.00
2018-12-14T08:28:26.951Z,47.88
2018-12-14T08:30:54.507Z,37.85
2018-12-14T08:33:22.004Z,43.25
2018-12-14T08:35:49.521Z,40.83
2018-12-14T08:38:17.028Z,36.23
2018-12-14T08:40:44.610Z,35.10
2018-12-14T08:43:13.289Z,40.92
2018-12-14T08:45:40.756Z,38.73
2018-12-14T08:48:09.515Z,40.10
2018-12-14T08:50:37.125Z,43.17
2018-12-14T08:53:04.652Z,44.45
2018-12-14T08:55:32.093Z,37.15
2018-12-14T08:57:59.638Z,37.65
2018-12-14T09:00:27.083Z,41.58
2018-12-14T09:02:54.621Z,40.50
2018-12-14T09:05:22.190Z,56.98
2018-12-14T09:07:49.695Z,50.25
2018-12-14T09:10:17.329Z,51.98
2018-12-14T09:12:44.996Z,56.80
2018-12-14T09:15:12.457Z,56.77
2018-12-14T09:17:40.100Z,54.03
2018-12-14T09:20:07.668Z,51.15
2018-12-14T09:22:35.384Z,50.30
2018-12-14T09:25:03.156Z,46.48
2018-12-14T09:27:30.682Z,35.50
2018-12-14T09:29:58.164Z,36.65
2018-12-14T09:32:25.700Z,40.23
2018-12-14T09:34:53.183Z,48.30
2018-12-14T09:37:20.620Z,47.30
2018-12-14T09:39:48.122Z,42.93
2018-12-14T09:42:15.672Z,43.15
2018-12-14T09:44:43.222Z,39.05
2018-12-14T09:47:11.208Z,40.55
2018-12-14T09:49:38.955Z,41.95
2018-12-14T09:52:06.595Z,45.83
2018-12-14T09:54:34.105Z,51.50
2018-12-14T09:57:01.585Z,50.58
2018-12-14T09:59:29.076Z,42.03
2018-12-14T10:01:56.505Z,48.75
2018-12-14T10:04:23.901Z,46.95
2018-12-14T10:06:51.335Z,57.33
2018-12-14T10:09:18.814Z,50.80
2018-12-14T10:11:46.323Z,56.90
2018-12-14T10:14:13.752Z,52.10
2018-12-14T10:16:41.137Z,50.90
2018-12-14T10:19:08.870Z,59.20
2018-12-14T10:21:36.618Z,63.58
2018-12-14T10:24:04.263Z,57.20
2018-12-14T10:26:31.751Z,55.25
2018-12-14T10:28:59.287Z,59.42
2018-12-14T10:31:27.770Z,59.20
2018-12-14T10:33:55.256Z,53.95
2018-12-14T10:36:22.827Z,52.78
2018-12-14T10:38:50.475Z,56.88
2018-12-14T10:41:17.964Z,60.12
2018-12-14T10:43:45.570Z,54.45
2018-12-14T10:46:13.019Z,56.33
2018-12-14T10:48:40.514Z,51.33
2018-12-14T10:51:08.103Z,47.80
2018-12-14T10:53:35.741Z,55.43
2018-12-14T10:56:03.433Z,51.90
2018-12-14T10:58:30.978Z,45.52
2018-12-14T11:01:04.331Z,50.88
2018-12-14T11:03:31.864Z,52.80
2018-12-14T11:05:59.478Z,51.65
2018-12-14T11:08:28.156Z,44.63
2018-12-14T11:10:55.603Z,40.80
2018-12-14T11:13:23.055Z,49.30
2018-12-14T11:15:50.580Z,44.90
2018-12-14T11:18:19.130Z,43.25
2018-12-14T11:20:46.578Z,42.73
2018-12-14T11:23:14.069Z,45.85
2018-12-14T11:25:41.545Z,45.98
2018-12-14T11:28:09.028Z,41.08
2018-12-14T11:30:36.638Z,45.45
2018-12-14T11:33:04.232Z,37.73
2018-12-14T11:35:31.811Z,33.15
2018-12-14T11:37:59.507Z,36.53
2018-12-14T11:40:26.934Z,33.60
2018-12-14T11:42:54.445Z,34.20
2018-12-14T11:45:21.975Z,36.68
2018-12-14T11:47:49.456Z,32.78
2018-12-14T11:50:17.056Z,38.48
2018-12-14T11:52:44.575Z,32.60
2018-12-14T11:55:12.144Z,38.30
2018-12-14T11:57:40.041Z,32.85
2018-12-14T12:00:12.501Z,41.65
2018-12-14T12:02:43.052Z,31.35
2018-12-14T12:05:09.489Z,33.23
2018-12-14T12:07:37.866Z,32.75
2018-12-14T12:10:07.768Z,32.15
2018-12-14T12:12:35.562Z,36.90
2018-12-14T12:15:03.254Z,30.62
2018-12-14T12:17:31.235Z,34.65
2018-12-14T12:19:58.759Z,35.35
2018-12-14T12:22:26.256Z,34.73
2018-12-14T12:24:53.702Z,31.82
2018-12-14T12:27:21.307Z,31.07
2018-12-14T12:29:48.781Z,39.80
2018-12-14T12:32:16.408Z,35.23
2018-12-14T12:34:43.958Z,42.17
2018-12-14T12:37:11.481Z,36.95
2018-12-14T12:39:38.955Z,44.25
2018-12-14T12:42:06.542Z,35.13
2018-12-14T12:44:33.935Z,40.25
2018-12-14T12:47:01.507Z,37.42
2018-12-14T12:49:29.061Z,32.40
2018-12-14T12:51:56.666Z,36.53
2018-12-14T12:54:24.352Z,41.45
2018-12-14T12:56:51.823Z,32.90
2018-12-14T12:59:19.638Z,35.30
2018-12-14T13:01:47.094Z,35.23
2018-12-14T13:04:14.521Z,38.38
2018-12-14T13:06:42.180Z,33.58
2018-12-14T13:09:09.694Z,34.53
2018-12-14T13:11:39.038Z,33.48
2018-12-14T13:14:06.538Z,36.68
2018-12-14T13:16:33.957Z,30.20
2018-12-14T13:19:01.459Z,29.85
2018-12-14T13:21:28.895Z,29.72
2018-12-14T13:23:56.371Z,33.30
2018-12-14T13:26:23.990Z,37.80
2018-12-14T13:28:51.871Z,29.05
2018-12-14T13:31:19.547Z,28.85
2018-12-14T13:33:47.081Z,32.40
2018-12-14T13:36:14.506Z,32.28
2018-12-14T13:38:42.473Z,32.05
2018-12-14T13:41:13.140Z,39.25
2018-12-14T13:43:41.598Z,30.02
2018-12-14T13:46:09.322Z,32.03
2018-12-14T13:48:36.993Z,33.58
2018-12-14T13:51:04.905Z,30.23
2018-12-14T13:53:32.449Z,23.80
2018-12-14T13:55:59.944Z,30.27
2018-12-14T13:58:27.414Z,33.65
2018-12-14T14:00:54.857Z,31.57
2018-12-14T14:03:22.489Z,27.20
2018-12-14T14:05:49.981Z,28.83
2018-12-14T14:08:17.416Z,33.33
2018-12-14T14:10:44.951Z,30.68
2018-12-14T14:13:12.498Z,29.60
2018-12-14T14:15:40.015Z,29.90
2018-12-14T14:18:07.531Z,33.67
2018-12-14T14:20:35.050Z,32.75
2018-12-14T14:23:02.551Z,28.23
2018-12-14T14:25:30.228Z,30.23
2018-12-14T14:27:57.739Z,38.40
2018-12-14T14:30:25.255Z,31.40
2018-12-14T14:32:52.874Z,29.10
2018-12-14T14:35:20.454Z,26.93
2018-12-14T14:37:48.149Z,30.75
2018-12-14T14:40:15.714Z,25.62
2018-12-14T14:42:43.240Z,30.97
2018-12-14T14:45:10.756Z,28.85
2018-12-14T14:47:38.291Z,30.43
2018-12-14T14:50:07.784Z,28.90
2018-12-14T14:52:35.320Z,33.33
2018-12-14T14:55:03.154Z,25.80
2018-12-14T14:57:31.223Z,27.40
2018-12-14T14:59:58.794Z,32.98
2018-12-14T15:02:26.426Z,33.13
2018-12-14T15:04:53.927Z,35.58
2018-12-14T15:07:22.540Z,28.57
2018-12-14T15:09:50.078Z,32.38
2018-12-14T15:12:17.533Z,37.95
2018-12-14T15:14:45.055Z,31.35
2018-12-14T15:17:12.510Z,29.82
2018-12-14T15:19:40.080Z,32.35
2018-12-14T15:22:07.703Z,35.03
2018-12-14T15:24:35.190Z,37.33
2018-12-14T15:27:02.732Z,37.13
2018-12-14T15:29:30.205Z,33.90
2018-12-14T15:31:57.953Z,30.08
2018-12-14T15:34:25.385Z,39.13
2018-12-14T15:36:52.960Z,34.48
2018-12-14T15:39:20.438Z,34.23
2018-12-14T15:41:48.116Z,28.87
2018-12-14T15:44:15.536Z,34.30
2018-12-14T15:46:43.109Z,37.05
2018-12-14T15:49:10.708Z,34.43
2018-12-14T15:51:38.235Z,31.20
2018-12-14T15:54:05.961Z,34.15
2018-12-14T15:56:33.559Z,37.05
2018-12-14T15:59:01.197Z,41.05
2018-12-14T16:01:28.643Z,38.38
2018-12-14T16:03:56.136Z,33.00
2018-12-14T16:06:23.622Z,30.27
2018-12-14T16:08:51.082Z,28.62
2018-12-14T16:11:18.617Z,33.83
2018-12-14T16:13:46.051Z,31.50
2018-12-14T16:16:13.551Z,30.70
2018-12-14T16:18:41.147Z,31.75
2018-12-14T16:21:08.681Z,32.13
2018-12-14T16:23:36.559Z,34.75
2018-12-14T16:26:04.286Z,32.28
2018-12-14T16:28:32.051Z,32.80
2018-12-14T16:30:59.704Z,33.80
2018-12-14T16:33:27.211Z,32.05
2018-12-14T16:35:54.699Z,33.53
2018-12-14T16:38:22.137Z,29.25
2018-12-14T16:40:49.698Z,27.82
2018-12-14T16:43:17.184Z,33.30
2018-12-14T16:45:44.688Z,39.67
2018-12-14T16:48:12.157Z,37.10
2018-12-14T16:50:39.782Z,41.37
2018-12-14T16:53:07.432Z,37.30
2018-12-14T16:55:34.890Z,38.70
2018-12-14T16:58:02.610Z,45.30
2018-12-14T17:00:30.230Z,41.75
2018-12-14T17:02:57.951Z,38.95
2018-12-14T17:05:26.089Z,29.57
2018-12-14T17:07:53.675Z,33.90
2018-12-14T17:10:21.206Z,29.27
2018-12-14T17:12:48.736Z,28.38
2018-12-14T17:15:16.278Z,33.80
2018-12-14T17:17:43.718Z,32.88
2018-12-14T17:20:11.154Z,29.00
2018-12-14T17:22:39.010Z,34.30
2018-12-14T17:25:06.977Z,28.55
2018-12-14T17:27:34.369Z,32.25
2018-12-14T17:30:01.938Z,28.73
2018-12-14T17:32:29.498Z,31.55
2018-12-14T17:34:59.036Z,31.93
2018-12-14T17:37:26.477Z,30.40
2018-12-14T17:39:56.035Z,30.15
2018-12-14T17:42:25.605Z,30.80
2018-12-14T17:44:53.142Z,30.45
2018-12-14T17:47:20.618Z,28.40
2018-12-14T17:49:48.079Z,30.50
2018-12-14T17:52:15.594Z,32.60
2018-12-14T17:54:43.095Z,27.98
2018-12-14T17:57:10.622Z,31.33
2018-12-14T17:59:38.198Z,28.15
2018-12-14T18:02:05.676Z,30.80
2018-12-14T18:04:33.127Z,27.05
2018-12-14T18:07:00.588Z,29.50
2018-12-14T18:09:27.994Z,28.40
2018-12-14T18:11:55.622Z,36.25
2018-12-14T18:14:23.197Z,35.63
2018-12-14T18:16:50.667Z,34.23
2018-12-14T18:19:18.130Z,29.90
2018-12-14T18:21:45.614Z,27.55
2018-12-14T18:24:13.099Z,29.80
2018-12-14T18:26:41.637Z,28.75
2018-12-14T18:29:09.084Z,33.42
2018-12-14T18:31:36.550Z,58.75
2018-12-14T18:34:04.179Z,39.92
2018-12-14T18:36:31.756Z,43.65
2018-12-14T18:38:59.195Z,35.03
2018-12-14T18:41:26.926Z,31.57
2018-12-14T18:43:54.425Z,33.65
2018-12-14T18:46:21.927Z,41.30
2018-12-14T18:48:49.407Z,40.70
2018-12-14T18:51:16.922Z,37.00
2018-12-14T18:53:51.196Z,34.65
2018-12-14T18:56:18.804Z,34.03
2018-12-14T18:58:46.324Z,36.98
2018-12-14T19:01:13.777Z,33.10
2018-12-14T19:03:41.238Z,32.10
2018-12-14T19:06:08.747Z,33.18
2018-12-14T19:08:36.293Z,35.33
2018-12-14T19:11:03.761Z,34.13
2018-12-14T19:13:31.218Z,38.58
2018-12-14T19:15:59.827Z,31.85
2018-12-14T19:18:27.514Z,36.13
2018-12-14T19:20:55.041Z,31.60
2018-12-14T19:23:22.629Z,35.17
2018-12-14T19:25:50.230Z,32.95
2018-12-14T19:28:17.729Z,31.23
2018-12-14T19:30:45.220Z,31.25
2018-12-14T19:33:12.865Z,30.60
2018-12-14T19:35:40.431Z,29.95
2018-12-14T19:38:07.919Z,33.13
2018-12-14T19:40:35.621Z,31.65
2018-12-14T19:43:03.061Z,30.05
2018-12-14T19:45:30.558Z,33.55
2018-12-14T19:47:58.028Z,31.90
2018-12-14T19:50:25.515Z,37.80
2018-12-14T19:52:53.004Z,29.75
2018-12-14T19:55:20.490Z,30.40
2018-12-14T19:57:47.999Z,29.70
2018-12-14T20:00:15.648Z,33.40
2018-12-14T20:02:43.370Z,32.80
2018-12-14T20:05:10.870Z,31.10
2018-12-14T20:07:38.432Z,34.73
2018-12-14T20:10:06.964Z,26.73
2018-12-14T20:12:34.727Z,33.78
2018-12-14T20:15:02.234Z,30.62
2018-12-14T20:17:30.117Z,30.50
2018-12-14T20:19:57.637Z,28.30
2018-12-14T20:22:25.079Z,31.07
2018-12-14T20:24:52.519Z,31.27
2018-12-14T20:27:20.086Z,30.43
2018-12-14T20:29:48.387Z,32.93
2018-12-14T20:32:15.865Z,34.73
2018-12-14T20:34:43.385Z,28.60
2018-12-14T20:37:10.804Z,34.27
2018-12-14T20:39:39.392Z,31.20
2018-12-14T20:42:06.825Z,27.93
2018-12-14T20:44:34.375Z,28.50
2018-12-14T20:47:01.869Z,30.55
2018-12-14T20:49:29.736Z,33.35
2018-12-14T20:51:57.326Z,43.28
2018-12-14T20:54:24.890Z,39.00
2018-12-14T20:56:52.377Z,36.13
2018-12-14T20:59:19.865Z,34.18
2018-12-14T21:01:47.327Z,33.75
2018-12-14T21:04:14.792Z,36.23
2018-12-14T21:06:42.221Z,31.50
2018-12-14T21:09:09.691Z,34.50
2018-12-14T21:11:37.309Z,29.48
2018-12-14T21:14:04.939Z,31.05
2018-12-14T21:16:38.951Z,37.55
2018-12-14T21:19:06.469Z,33.63
2018-12-14T21:21:34.082Z,32.35
2018-12-14T21:24:01.601Z,33.73
2018-12-14T21:26:29.252Z,34.30
2018-12-14T21:28:56.914Z,34.03
2018-12-14T21:31:24.407Z,34.55
2018-12-14T21:33:51.922Z,34.48
2018-12-14T21:36:19.383Z,30.43
2018-12-14T21:38:46.835Z,29.10
2018-12-14T21:41:14.315Z,33.35
2018-12-14T21:43:42.145Z,31.93
2018-12-14T21:46:09.811Z,28.55
2018-12-14T21:48:37.319Z,34.25
2018-12-14T21:51:04.924Z,33.25
2018-12-14T21:53:32.551Z,30.97
2018-12-14T21:56:00.067Z,32.25
2018-12-14T21:58:34.456Z,36.15
2018-12-14T22:01:02.005Z,33.02
2018-12-14T22:03:29.768Z,33.28
2018-12-14T22:05:57.399Z,30.88
2018-12-14T22:08:24.942Z,31.70
2018-12-14T22:10:52.478Z,37.13
2018-12-14T22:13:20.030Z,31.52
2018-12-14T22:15:47.473Z,29.45
2018-12-14T22:18:15.319Z,32.10
2018-12-14T22:20:42.785Z,30.23
2018-12-14T22:23:10.264Z,34.23
2018-12-14T22:25:37.749Z,34.27
2018-12-14T22:28:05.210Z,32.93
2018-12-14T22:30:32.808Z,31.30
2018-12-14T22:33:00.303Z,36.03
2018-12-14T22:35:27.793Z,34.05
2018-12-14T22:37:55.955Z,32.13
2018-12-14T22:40:23.466Z,25.80
2018-12-14T22:42:50.968Z,27.75
2018-12-14T22:45:18.409Z,29.00
2018-12-14T22:47:45.861Z,35.68
2018-12-14T22:50:13.392Z,30.68
2018-12-14T22:52:40.886Z,28.15
2018-12-14T22:55:08.330Z,28.23
2018-12-14T22:57:36.095Z,32.67
2018-12-14T23:00:06.100Z,31.50
2018-12-14T23:02:35.522Z,33.13
2018-12-14T23:05:03.311Z,32.05
2018-12-14T23:07:30.951Z,31.87
2018-12-14T23:09:58.909Z,29.35
2018-12-14T23:12:27.539Z,36.80
2018-12-14T23:14:54.976Z,30.62
2018-12-14T23:17:22.379Z,32.23
2018-12-14T23:19:50.951Z,33.55
2018-12-14T23:22:18.514Z,27.15
2018-12-14T23:24:45.968Z,29.42
2018-12-14T23:27:13.593Z,27.37
2018-12-14T23:29:41.009Z,27.87
2018-12-14T23:32:08.518Z,33.10
2018-12-14T23:34:36.080Z,36.05
2018-12-14T23:37:03.694Z,31.87
2018-12-14T23:39:31.351Z,28.02
2018-12-14T23:41:59.218Z,26.68
2018-12-14T23:44:26.702Z,27.98
2018-12-14T23:46:58.797Z,30.77
2018-12-14T23:49:23.703Z,28.32
2018-12-14T23:51:51.195Z,33.05
2018-12-14T23:54:18.673Z,32.83
2018-12-14T23:56:46.106Z,32.83
2018-12-14T23:59:13.910Z,27.77
